Time;durP1;ratioP1;P1;durP2;ratioP2;P2;SDS_P1;SDS_P2;PMS_P1;PMS_P2;Temp;Humidity;BMP_temperature;BMP_pressure;BME280_temperature;BME280_humidity;BME280_pressure;Samples;Min_cycle;Max_cycle;Signal;HPM_P1;HPM_P2
2022/12/29 00:01:48;;;;;;;21.02;15.85;;;;;;;2.59;65.32;99275.72;5087713;28;20044;-73
2022/12/29 00:04:16;;;;;;;20.58;15.23;;;;;;;2.08;65.49;99198.44;5088319;28;20039;-73
2022/12/29 00:06:43;;;;;;;22.40;16.42;;;;;;;2.78;65.63;99319.72;5088771;28;20075;-73
2022/12/29 00:09:11;;;;;;;22.50;14.93;;;;;;;2.76;65.54;99316.28;5086902;28;20048;-73
2022/12/29 00:11:40;;;;;;;23.83;17.23;;;;;;;2.74;65.61;99320.69;5088134;28;20215;-72
2022/12/29 00:16:51;;;;;;;19.63;15.35;;;;;;;2.71;65.69;99338.22;5065138;28;20326;-73
2022/12/29 00:35:58;;;;;;;18.67;13.02;;;;;;;1.96;65.53;99243.16;5088339;28;20062;-73
2022/12/29 00:44:06;;;;;;;15.10;10.17;;;;;;;2.49;65.87;99340.47;5088215;28;20380;-73
2022/12/29 00:46:33;;;;;;;12.30;9.85;;;;;;;2.50;65.70;99329.09;5088578;28;20111;-72
2022/12/29 00:51:46;;;;;;;11.32;9.40;;;;;;;2.46;65.81;99336.16;5087343;28;20047;-73
2022/12/29 00:54:14;;;;;;;11.43;9.20;;;;;;;2.44;65.87;99339.72;5087845;28;20090;-73
2022/12/29 00:56:41;;;;;;;9.98;8.70;;;;;;;2.36;65.90;99347.72;5088528;28;20041;-73
2022/12/29 00:59:09;;;;;;;13.13;8.73;;;;;;;1.97;66.03;99281.47;5087693;28;20045;-73
2022/12/29 01:01:37;;;;;;;15.02;9.27;;;;;;;2.39;65.89;99349.41;5088328;28;20221;-73
2022/12/29 01:04:06;;;;;;;17.50;9.60;;;;;;;1.91;65.74;99268.53;5087795;28;20047;-73
2022/12/29 01:06:34;;;;;;;10.88;9.07;;;;;;;1.83;65.74;99273.94;5087934;28;20098;-73
2022/12/29 01:11:45;;;;;;;11.98;8.60;;;;;;;2.42;65.64;99362.44;5088027;28;20098;-73
2022/12/29 01:14:12;;;;;;;13.02;9.70;;;;;;;2.42;65.66;99354.59;5086665;28;20097;-73
2022/12/29 01:16:39;;;;;;;12.80;9.23;;;;;;;2.39;65.70;99363.34;5086495;28;20044;-73
2022/12/29 01:19:07;;;;;;;12.38;10.70;;;;;;;2.38;65.65;99355.53;5087457;28;20044;-73
2022/12/29 01:21:34;;;;;;;14.05;9.68;;;;;;;2.38;65.72;99352.94;5086542;28;20242;-72
2022/12/29 01:24:01;;;;;;;14.82;10.00;;;;;;;2.36;65.66;99370.41;5086510;28;20174;-73
2022/12/29 01:26:28;;;;;;;13.70;9.68;;;;;;;2.33;65.75;99367.88;5087540;28;20205;-73
2022/12/29 01:28:54;;;;;;;14.68;11.15;;;;;;;2.31;65.89;99367.91;5086677;28;20056;-73
2022/12/29 01:31:21;;;;;;;16.95;10.48;;;;;;;2.30;65.77;99365.31;5086274;28;20048;-73
2022/12/29 01:33:48;;;;;;;14.25;10.95;;;;;;;2.29;65.74;99374.06;5087147;28;20056;-72
2022/12/29 01:36:18;;;;;;;18.83;12.65;;;;;;;1.98;65.84;99306.72;5087277;28;20056;-73
2022/12/29 01:38:46;;;;;;;14.60;11.45;;;;;;;2.26;65.80;99356.69;5086883;28;20098;-73
2022/12/29 01:41:14;;;;;;;15.52;11.35;;;;;;;2.21;66.07;99362.00;5086193;28;20044;-73
2022/12/29 01:43:43;;;;;;;16.40;12.38;;;;;;;2.16;66.03;99355.16;5086231;28;20040;-73
2022/12/29 01:46:20;;;;;;;15.82;11.80;;;;;;;2.12;66.41;99359.59;5087279;28;20056;-73
2022/12/29 01:48:48;;;;;;;14.63;11.18;;;;;;;1.72;66.02;99290.72;5086897;28;20063;-73
2022/12/29 01:51:19;;;;;;;16.73;11.98;;;;;;;2.14;66.00;99365.63;5069920;28;20083;-73
2022/12/29 01:53:46;;;;;;;15.80;10.63;;;;;;;2.11;66.23;99352.63;5086629;28;20063;-73
2022/12/29 01:56:18;;;;;;;15.88;11.70;;;;;;;2.11;66.24;99349.16;5086666;28;20279;-73
2022/12/29 01:58:48;;;;;;;15.80;11.13;;;;;;;2.06;66.46;99351.88;5087194;28;20308;-73
2022/12/29 02:01:18;;;;;;;15.80;11.27;;;;;;;2.07;66.25;99342.28;5086591;28;20044;-73
2022/12/29 02:03:44;;;;;;;14.60;10.63;;;;;;;2.06;66.23;99330.94;5087678;28;20044;-73
2022/12/29 02:06:16;;;;;;;16.35;12.48;;;;;;;2.05;66.48;99326.63;5086853;28;20048;-72
2022/12/29 02:08:47;;;;;;;15.05;11.85;;;;;;;2.03;66.65;99325.78;5086751;28;20040;-72
2022/12/29 02:11:16;;;;;;;15.48;11.73;;;;;;;2.02;66.27;99334.53;5086938;28;20040;-73
2022/12/29 02:13:43;;;;;;;12.93;11.02;;;;;;;1.98;66.49;99327.63;5086061;28;20227;-73
2022/12/29 02:16:21;;;;;;;13.88;10.80;;;;;;;1.97;67.36;99328.53;5086236;28;20051;-73
2022/12/29 02:18:57;;;;;;;16.13;11.32;;;;;;;1.43;66.99;99228.59;5086121;28;20059;-73
2022/12/29 02:21:50;;;;;;;13.20;10.35;;;;;;;1.96;67.50;99321.59;5087927;28;20048;-73
2022/12/29 02:25:02;;;;;;;11.73;9.63;;;;;;;1.96;67.80;99312.88;5086879;28;20075;-73
2022/12/29 02:27:51;;;;;;;14.98;10.25;;;;;;;1.91;67.89;99305.13;5023810;28;20092;-73
2022/12/29 02:30:43;;;;;;;12.73;9.98;;;;;;;1.94;67.81;99299.84;5086213;28;20242;-73
2022/12/29 02:33:22;;;;;;;13.02;9.70;;;;;;;1.95;66.98;99303.31;5089606;28;20052;-73
2022/12/29 02:35:57;;;;;;;12.93;10.48;;;;;;;1.94;67.18;99301.59;5090720;28;20059;-73
2022/12/29 02:38:31;;;;;;;;;;;;;;;1.88;68.16;99294.75;5074198;28;20078;-73
2022/12/29 02:41:06;;;;;;;13.75;9.65;;;;;;;1.86;67.22;99306.97;5090390;28;19930;-72
2022/12/29 02:43:39;;;;;;;16.40;11.00;;;;;;;1.84;67.23;99300.94;5089602;28;20040;-72
2022/12/29 02:46:16;;;;;;;14.48;11.35;;;;;;;0.86;67.30;99172.28;5090690;28;20052;-73
2022/12/29 02:48:47;;;;;;;15.23;10.93;;;;;;;1.84;66.94;99303.53;5089412;28;20040;-73
2022/12/29 02:51:19;;;;;;;12.05;9.40;;;;;;;1.84;66.93;99308.78;5089287;28;20044;-72
2022/12/29 02:56:40;;;;;;;13.32;10.20;;;;;;;1.80;66.94;99304.50;5077627;28;20044;-73
2022/12/29 02:59:07;;;;;;;14.07;10.60;;;;;;;1.79;66.52;99306.25;5090624;28;20044;-72
2022/12/29 03:04:49;;;;;;;12.65;10.00;;;;;;;0.79;67.06;99164.59;5089374;28;20323;-72
2022/12/29 03:07:24;;;;;;;12.77;10.27;;;;;;;1.77;66.98;99308.03;5089149;28;20058;-72
2022/12/29 03:09:57;;;;;;;13.70;9.85;;;;;;;1.76;66.80;99298.47;5089057;28;20052;-73
2022/12/29 03:18:14;;;;;;;13.80;11.20;;;;;;;1.66;67.41;99315.22;5088766;28;20047;-72
2022/12/29 03:20:50;;;;;;;14.20;11.10;;;;;;;1.68;67.26;99309.97;5090035;28;20041;-72
2022/12/29 03:23:20;;;;;;;13.05;10.60;;;;;;;1.68;67.04;99308.22;5089568;28;20055;-73
2022/12/29 03:25:51;;;;;;;16.15;11.43;;;;;;;1.69;67.02;99306.47;5088651;28;20045;-73
2022/12/29 03:28:23;;;;;;;19.02;10.80;;;;;;;0.60;66.97;99251.00;5090033;28;20041;-73
2022/12/29 03:30:50;;;;;;;16.35;12.35;;;;;;;1.68;66.78;99299.53;5088907;28;20060;-72
2022/12/29 03:33:23;;;;;;;13.65;11.10;;;;;;;1.66;67.00;99306.53;5072098;28;20052;-72
2022/12/29 03:35:53;;;;;;;13.80;11.10;;;;;;;1.65;66.82;99308.28;5088950;28;20041;-73
2022/12/29 03:38:23;;;;;;;14.45;10.73;;;;;;;1.67;66.79;99306.50;5088692;28;20090;-72
2022/12/29 03:40:53;;;;;;;14.88;10.30;;;;;;;1.66;66.83;99296.94;5088419;28;20331;-73
2022/12/29 03:43:21;;;;;;;14.75;11.15;;;;;;;1.66;66.79;99306.53;5088479;28;20044;-73
2022/12/29 03:45:48;;;;;;;13.55;10.68;;;;;;;0.86;67.02;99193.16;5088704;28;20037;-73
2022/12/29 03:48:14;;;;;;;11.15;9.88;;;;;;;1.61;67.17;99300.53;5089173;28;20251;-73
2022/12/29 03:50:42;;;;;;;13.80;10.05;;;;;;;1.36;67.45;99264.41;5089376;28;20036;-72
2022/12/29 03:53:09;;;;;;;12.27;10.70;;;;;;;1.62;67.39;99310.09;5089753;28;20051;-72
2022/12/29 03:55:36;;;;;;;12.68;10.07;;;;;;;1.64;67.32;99321.38;5089714;28;20048;-73
2022/12/29 03:58:03;;;;;;;13.98;10.40;;;;;;;1.65;67.48;99313.50;5090712;28;20040;-73
2022/12/29 04:00:30;;;;;;;9.93;8.57;;;;;;;-2.65;67.32;98796.84;5075583;28;20048;-73
2022/12/29 04:02:56;;;;;;;12.15;9.70;;;;;;;1.62;67.77;99315.31;5090523;28;20070;-73
2022/12/29 04:05:23;;;;;;;13.98;10.48;;;;;;;1.56;67.92;99314.50;5087308;28;20036;-73
2022/12/29 04:07:51;;;;;;;16.08;11.40;;;;;;;1.55;68.04;99309.31;5088519;28;20254;-73
2022/12/29 04:10:18;;;;;;;10.98;8.20;;;;;;;1.54;68.14;99313.69;5089183;28;20239;-74
2022/12/29 04:12:46;;;;;;;12.15;9.13;;;;;;;1.49;68.84;99312.06;5088389;28;20067;-74
2022/12/29 04:15:13;;;;;;;12.90;9.90;;;;;;;1.43;69.03;99310.41;5088675;28;20070;-74
2022/12/29 04:17:40;;;;;;;14.00;9.60;;;;;;;1.38;69.41;99312.25;5088911;28;20067;-73
2022/12/29 04:23:00;;;;;;;12.80;9.55;;;;;;;1.30;69.93;99311.53;5091774;28;20078;-74
2022/12/29 04:25:27;;;;;;;13.10;10.00;;;;;;;0.51;69.28;99172.94;5092836;28;20064;-73
2022/12/29 04:27:54;;;;;;;14.02;8.95;;;;;;;1.31;69.40;99313.25;5092557;28;20056;-74
2022/12/29 04:30:36;;;;;;;12.45;9.70;;;;;;;1.27;69.62;99319.44;5076553;28;20070;-74
2022/12/29 04:33:08;;;;;;;11.57;9.43;;;;;;;0.50;69.50;99188.59;5090479;28;20245;-73
2022/12/29 04:35:34;;;;;;;13.25;9.80;;;;;;;1.20;69.80;99321.28;5088221;28;20224;-74
2022/12/29 04:38:05;;;;;;;12.02;8.98;;;;;;;-1.72;69.97;98863.19;5090636;28;20040;-74
2022/12/29 04:40:32;;;;;;;11.48;8.65;;;;;;;-5.94;69.14;98183.44;5090006;28;20044;-74
2022/12/29 04:42:59;;;;;;;11.65;10.35;;;;;;;-6.02;69.10;98106.13;5090899;28;20082;-74
2022/12/29 04:45:26;;;;;;;10.95;9.80;;;;;;;1.21;69.68;99325.63;5090699;28;20113;-74
2022/12/29 04:47:53;;;;;;;13.68;9.50;;;;;;;1.19;69.86;99321.31;5089849;28;20056;-74
2022/12/29 04:50:20;;;;;;;11.27;9.88;;;;;;;1.19;69.70;99321.31;5088009;28;20040;-75
2022/12/29 04:52:46;;;;;;;11.05;8.98;;;;;;;1.19;69.51;99316.97;5087032;28;20036;-74
2022/12/29 04:55:15;;;;;;;14.63;10.25;;;;;;;1.19;69.45;99319.56;5089093;28;20056;-74
2022/12/29 04:57:42;;;;;;;13.85;9.02;;;;;;;1.20;69.48;99310.84;5089869;28;20036;-74
2022/12/29 05:00:11;;;;;;;10.90;8.82;;;;;;;1.17;69.77;99316.13;5089330;28;20040;-73
2022/12/29 05:02:39;;;;;;;13.05;10.10;;;;;;;1.16;69.80;99319.63;5087665;28;20044;-73
2022/12/29 05:05:06;;;;;;;16.10;11.00;;;;;;;1.14;70.06;99313.56;5088031;28;20044;-73
2022/12/29 05:07:34;;;;;;;11.18;9.25;;;;;;;0.08;69.91;99167.56;5088400;28;20032;-73
2022/12/29 05:10:10;;;;;;;13.20;10.35;;;;;;;-1.23;70.13;98927.47;5086124;28;20051;-75
2022/12/29 05:12:40;;;;;;;10.50;8.63;;;;;;;1.12;70.24;99317.09;5091231;28;20044;-74
2022/12/29 05:15:08;;;;;;;15.02;10.27;;;;;;;-0.29;70.13;99076.13;5091649;28;20044;-74
2022/12/29 05:17:36;;;;;;;12.13;9.98;;;;;;;1.09;70.31;99322.38;5091791;28;20055;-74
2022/12/29 05:20:04;;;;;;;12.65;8.77;;;;;;;-5.97;69.84;98135.31;5091051;28;20051;-74
2022/12/29 05:22:31;;;;;;;11.35;9.98;;;;;;;-6.29;70.01;98070.22;5091458;28;20048;-74
2022/12/29 05:24:57;;;;;;;12.70;9.43;;;;;;;0.99;70.41;99310.38;5073704;28;20040;-74
2022/12/29 05:27:25;;;;;;;11.73;9.93;;;;;;;1.08;70.32;99312.81;5091329;28;20055;-74
2022/12/29 05:29:53;;;;;;;13.90;10.55;;;;;;;-10.19;69.22;97408.03;5090864;28;20094;-74
2022/12/29 05:32:20;;;;;;;12.73;9.30;;;;;;;1.13;70.23;99309.22;5091592;28;20715;-74
2022/12/29 05:34:47;;;;;;;14.15;9.77;;;;;;;-0.63;69.88;99012.44;5091610;28;20071;-74
2022/12/29 05:37:14;;;;;;;13.25;10.05;;;;;;;1.21;69.88;99311.72;5090468;28;20040;-74
2022/12/29 05:39:40;;;;;;;13.88;10.25;;;;;;;1.20;69.57;99308.22;5090718;28;20051;-74
2022/12/29 05:42:08;;;;;;;12.55;9.07;;;;;;;-4.02;69.36;98422.69;5090692;28;20036;-74
2022/12/29 05:44:35;;;;;;;13.48;10.05;;;;;;;1.17;69.94;99315.25;5089939;28;20037;-75
2022/12/29 05:47:04;;;;;;;12.13;8.98;;;;;;;1.17;70.09;99323.09;5090039;28;20105;-73
2022/12/29 05:49:34;;;;;;;12.95;9.73;;;;;;;-2.80;69.67;98662.16;5073856;28;20047;-74
2022/12/29 05:52:02;;;;;;;12.63;10.50;;;;;;;1.18;70.06;99314.38;5090712;28;20237;-73
2022/12/29 05:54:29;;;;;;;12.30;9.98;;;;;;;1.16;70.07;99316.16;5091244;28;20100;-73
2022/12/29 05:57:00;;;;;;;12.88;10.10;;;;;;;1.13;70.22;99317.06;5090195;28;20048;-73
2022/12/29 05:59:27;;;;;;;13.23;10.80;;;;;;;-6.31;69.89;98071.97;5090903;28;20344;-73
2022/12/29 06:01:53;;;;;;;12.07;9.60;;;;;;;-0.16;70.39;99119.31;5073802;28;20040;-73
2022/12/29 06:04:21;;;;;;;12.90;9.98;;;;;;;1.02;70.71;99326.81;5085564;28;20040;-74
2022/12/29 06:06:48;;;;;;;12.63;9.38;;;;;;;0.94;70.82;99323.50;5087154;28;20228;-74
2022/12/29 06:09:15;;;;;;;14.60;10.88;;;;;;;0.92;70.83;99326.13;5088387;28;20036;-74
2022/12/29 06:11:42;;;;;;;13.65;10.60;;;;;;;0.90;70.92;99322.69;5088207;28;20235;-74
2022/12/29 06:14:09;;;;;;;14.40;11.07;;;;;;;0.89;71.01;99325.31;5088158;28;20041;-75
2022/12/29 06:16:36;;;;;;;12.13;10.55;;;;;;;0.85;70.99;99327.13;5088564;28;20044;-74
2022/12/29 06:19:03;;;;;;;13.55;11.45;;;;;;;0.84;70.87;99327.13;5071640;28;20049;-75
2022/12/29 06:21:32;;;;;;;12.75;10.15;;;;;;;0.81;70.99;99328.06;5089576;28;20219;-74
2022/12/29 06:23:58;;;;;;;14.02;10.77;;;;;;;0.78;70.69;99327.25;5074078;28;20086;-74
2022/12/29 06:26:25;;;;;;;11.95;10.30;;;;;;;0.80;70.67;99325.47;5090332;28;20049;-74
2022/12/29 06:28:52;;;;;;;11.65;10.45;;;;;;;0.78;70.78;99327.25;5089008;28;20063;-75
2022/12/29 06:31:18;;;;;;;13.07;10.82;;;;;;;0.75;70.85;99327.28;5088477;28;20082;-74
2022/12/29 06:33:45;;;;;;;15.85;12.60;;;;;;;0.77;70.65;99338.56;5088192;28;20052;-75
2022/12/29 06:36:12;;;;;;;14.02;11.43;;;;;;;0.79;70.58;99340.25;5088182;28;20044;-75
2022/12/29 06:38:41;;;;;;;14.57;11.93;;;;;;;0.81;70.54;99338.47;5087473;28;20366;-75
2022/12/29 06:41:08;;;;;;;15.10;12.43;;;;;;;0.85;70.67;99341.91;5087451;28;20052;-75
2022/12/29 06:43:37;;;;;;;14.60;11.77;;;;;;;0.85;70.73;99349.72;5088173;28;20036;-76
2022/12/29 06:46:05;;;;;;;15.38;12.15;;;;;;;0.84;70.78;99340.19;5087633;28;20042;-74
2022/12/29 06:48:31;;;;;;;17.30;13.85;;;;;;;0.76;71.65;99350.75;5088865;28;20197;-73
2022/12/29 06:50:58;;;;;;;20.65;14.60;;;;;;;0.65;72.43;99360.47;5089104;28;20062;-73
2022/12/29 06:53:25;;;;;;;21.88;13.82;;;;;;;0.57;73.05;99357.13;5088164;28;20036;-75
2022/12/29 06:55:53;;;;;;;21.30;14.60;;;;;;;0.51;73.42;99362.44;5089540;28;20052;-74
2022/12/29 06:58:20;;;;;;;18.38;13.93;;;;;;;0.48;73.35;99367.69;5089310;28;20094;-74
2022/12/29 07:00:47;;;;;;;18.63;14.38;;;;;;;0.43;73.46;99365.16;5089290;28;20044;-74
2022/12/29 07:03:14;;;;;;;19.33;14.25;;;;;;;0.43;73.60;99366.88;5089822;28;20048;-74
2022/12/29 07:05:41;;;;;;;18.92;14.00;;;;;;;0.39;73.96;99366.06;5088379;28;20247;-74
2022/12/29 07:08:07;;;;;;;20.15;14.45;;;;;;;0.35;74.05;99367.00;5088249;28;20036;-74
2022/12/29 07:10:34;;;;;;;20.25;14.13;;;;;;;0.37;73.78;99359.16;5088036;28;20055;-73
2022/12/29 07:13:03;;;;;;;19.35;14.07;;;;;;;0.43;73.97;99359.94;5089226;28;20051;-73
2022/12/29 07:15:29;;;;;;;25.15;14.90;;;;;;;0.46;73.70;99367.72;5087913;28;20082;-74
2022/12/29 07:17:56;;;;;;;21.52;15.18;;;;;;;0.49;73.29;99369.41;5087753;28;20048;-73
2022/12/29 07:20:23;;;;;;;19.30;14.27;;;;;;;0.47;73.51;99366.81;5089243;28;20242;-73
2022/12/29 07:22:50;;;;;;;17.50;14.35;;;;;;;0.43;73.40;99359.94;5090034;28;20051;-73
2022/12/29 07:25:17;;;;;;;18.17;13.23;;;;;;;0.41;73.06;99360.84;5089287;28;20044;-73
2022/12/29 07:27:43;;;;;;;17.45;12.85;;;;;;;0.42;72.94;99363.41;5089223;28;20062;-73
2022/12/29 07:30:13;;;;;;;19.08;12.30;;;;;;;0.40;73.17;99359.97;5089463;28;20036;-74
2022/12/29 07:32:40;;;;;;;22.10;15.35;;;;;;;0.40;72.90;99359.13;5089225;28;20316;-74
2022/12/29 07:35:09;;;;;;;18.25;13.90;;;;;;;0.39;72.84;99360.00;5090052;28;20052;-73
2022/12/29 07:37:36;;;;;;;17.73;13.07;;;;;;;0.38;72.63;99366.09;5089411;28;20089;-73
2022/12/29 07:40:03;;;;;;;20.10;13.95;;;;;;;0.35;72.89;99359.19;5089153;28;20048;-74
2022/12/29 07:42:31;;;;;;;21.85;14.48;;;;;;;-0.02;72.54;99324.06;5089615;28;20086;-74
2022/12/29 07:44:57;;;;;;;18.70;14.52;;;;;;;0.32;72.73;99368.78;5090258;28;20235;-73
2022/12/29 07:47:26;;;;;;;18.17;12.85;;;;;;;0.34;72.72;99369.63;5090319;28;20040;-74
2022/12/29 07:49:53;;;;;;;22.00;13.13;;;;;;;0.34;72.95;99367.88;5090349;28;20058;-73
2022/12/29 07:52:20;;;;;;;23.13;14.75;;;;;;;0.23;73.15;99362.81;5090117;28;20252;-74
2022/12/29 07:54:47;;;;;;;19.77;13.02;;;;;;;0.22;73.48;99362.84;5088901;28;20347;-74
2022/12/29 07:57:13;;;;;;;21.08;13.52;;;;;;;0.23;73.42;99364.56;5089140;28;20044;-74
2022/12/29 07:59:40;;;;;;;19.90;13.52;;;;;;;0.21;73.54;99363.72;5088002;28;20041;-73
2022/12/29 08:02:07;;;;;;;22.50;15.23;;;;;;;-1.72;73.83;99041.59;5088692;28;20040;-73
2022/12/29 08:04:35;;;;;;;21.88;16.05;;;;;;;0.24;73.81;99374.09;5088407;28;20349;-73
2022/12/29 08:07:02;;;;;;;22.25;15.75;;;;;;;0.22;74.17;99375.88;5089555;28;20047;-73
2022/12/29 08:09:28;;;;;;;23.52;15.75;;;;;;;0.21;74.32;99377.59;5088754;28;20044;-73
2022/12/29 08:11:55;;;;;;;24.63;17.02;;;;;;;0.17;74.53;99372.47;5087898;28;20086;-74
2022/12/29 08:14:22;;;;;;;26.13;17.25;;;;;;;0.15;74.72;99371.63;5087968;28;20040;-73
2022/12/29 08:16:49;;;;;;;23.63;16.55;;;;;;;0.15;74.95;99369.88;5089147;28;20040;-73
2022/12/29 08:19:15;;;;;;;26.55;17.10;;;;;;;0.18;74.74;99363.75;5087756;28;20044;-73
2022/12/29 08:21:44;;;;;;;23.08;16.38;;;;;;;-0.08;75.12;99317.19;5089034;28;20048;-73
2022/12/29 08:24:11;;;;;;;25.98;17.02;;;;;;;0.14;75.19;99368.16;5088577;28;20300;-74
2022/12/29 08:26:37;;;;;;;25.40;15.82;;;;;;;0.10;76.19;99369.06;5088619;28;20041;-74
2022/12/29 08:29:04;;;;;;;25.45;16.90;;;;;;;0.09;75.71;99369.94;5087763;28;20040;-74
2022/12/29 08:31:31;;;;;;;24.92;18.08;;;;;;;0.09;75.96;99366.47;5089071;28;20040;-74
2022/12/29 08:33:59;;;;;;;28.48;17.33;;;;;;;0.03;76.84;99358.75;5088841;28;20105;-73
2022/12/29 08:36:26;;;;;;;25.67;16.52;;;;;;;0.02;76.44;99367.44;5089075;28;20166;-74
2022/12/29 08:38:54;;;;;;;28.23;18.38;;;;;;;0.04;76.51;99366.53;5089555;28;20045;-73
2022/12/29 08:41:21;;;;;;;22.30;15.05;;;;;;;-0.01;76.83;99375.28;5089419;28;20051;-73
2022/12/29 08:43:48;;;;;;;28.48;17.75;;;;;;;-0.26;77.42;99335.66;5088003;28;20240;-73
2022/12/29 08:46:16;;;;;;;23.20;13.60;;;;;;;-0.04;77.33;99373.59;5088821;28;20036;-73
2022/12/29 08:48:43;;;;;;;26.77;15.50;;;;;;;-0.06;77.73;99370.16;5088941;28;20067;-73
2022/12/29 08:51:10;;;;;;;22.90;15.57;;;;;;;-0.29;77.18;99315.72;5090119;28;20107;-73
2022/12/29 08:53:36;;;;;;;24.45;15.38;;;;;;;0.02;77.22;99359.63;5089403;28;20036;-73
2022/12/29 08:56:06;;;;;;;27.27;15.88;;;;;;;0.05;77.57;99362.19;5090000;28;20074;-73
2022/12/29 08:58:33;;;;;;;24.48;14.73;;;;;;;0.08;77.57;99365.63;5089277;28;20037;-73
2022/12/29 09:01:00;;;;;;;22.65;15.18;;;;;;;0.08;77.61;99363.00;5090107;28;20192;-73
2022/12/29 09:03:27;;;;;;;28.80;16.83;;;;;;;0.05;77.74;99359.59;5088260;28;20050;-73
2022/12/29 09:05:55;;;;;;;25.83;17.02;;;;;;;0.02;77.83;99347.47;5088996;28;20044;-73
2022/12/29 09:08:23;;;;;;;27.05;16.92;;;;;;;0.09;77.61;99349.09;5089711;28;20036;-73
2022/12/29 09:10:50;;;;;;;25.95;17.55;;;;;;;0.13;77.78;99352.53;5089321;28;20055;-73
2022/12/29 09:13:20;;;;;;;25.08;15.75;;;;;;;-0.50;78.06;99253.50;5088478;28;20362;-73
2022/12/29 09:15:46;;;;;;;23.23;15.77;;;;;;;0.09;78.52;99348.25;5090037;28;20277;-73
2022/12/29 09:18:13;;;;;;;23.88;16.05;;;;;;;0.07;78.25;99347.41;5089306;28;20044;-73
2022/12/29 09:20:40;;;;;;;22.88;15.02;;;;;;;0.11;77.94;99346.47;5088958;28;20071;-73
2022/12/29 09:23:07;;;;;;;24.25;16.58;;;;;;;0.14;77.52;99343.84;5089908;28;20303;-73
2022/12/29 09:25:34;;;;;;;23.33;16.02;;;;;;;0.20;77.24;99338.53;5089345;28;20047;-73
2022/12/29 09:28:04;;;;;;;22.30;14.15;;;;;;;0.25;77.12;99329.78;5088768;28;20062;-73
2022/12/29 09:30:32;;;;;;;26.35;14.85;;;;;;;0.24;77.23;99330.66;5087769;28;20043;-73
2022/12/29 09:32:59;;;;;;;22.98;15.80;;;;;;;0.14;76.90;99321.25;5088794;28;20060;-73
2022/12/29 09:35:26;;;;;;;20.40;13.40;;;;;;;0.17;76.73;99328.16;5089434;28;20057;-73
2022/12/29 09:37:52;;;;;;;21.13;15.68;;;;;;;0.14;76.48;99321.25;5072143;28;20036;-73
2022/12/29 09:40:31;;;;;;;22.13;14.98;;;;;;;0.16;76.87;99319.47;5090266;28;20041;-73
2022/12/29 09:43:25;;;;;;;21.35;16.00;;;;;;;0.25;76.91;99323.69;5091552;28;20048;-73
2022/12/29 09:46:00;;;;;;;25.95;16.98;;;;;;;0.25;76.28;99329.78;5092191;28;20040;-73
2022/12/29 09:48:32;;;;;;;23.35;15.15;;;;;;;0.23;75.59;99323.72;5076300;28;20041;-73
2022/12/29 09:51:04;;;;;;;23.20;14.98;;;;;;;0.27;75.38;99327.13;5094002;28;20048;-73
2022/12/29 09:53:37;;;;;;;21.65;15.15;;;;;;;0.08;75.34;99283.97;5093109;28;20052;-73
2022/12/29 09:56:11;;;;;;;22.33;16.30;;;;;;;0.34;75.12;99309.66;5092401;28;20040;-73
2022/12/29 09:58:43;;;;;;;24.58;17.10;;;;;;;0.34;75.20;99322.69;5093149;28;20090;-73
2022/12/29 10:01:25;;;;;;;25.40;15.93;;;;;;;0.31;76.26;99318.41;5092559;28;20045;-73
2022/12/29 10:03:54;;;;;;;23.75;15.57;;;;;;;0.16;75.63;99298.63;5091810;28;20047;-73
2022/12/29 10:06:25;;;;;;;23.98;16.27;;;;;;;0.23;76.42;99321.09;5092710;28;20200;-73
2022/12/29 10:08:58;;;;;;;22.83;15.32;;;;;;;-0.11;77.05;99270.34;5092508;28;20055;-74
2022/12/29 10:11:36;;;;;;;25.88;17.83;;;;;;;0.11;77.63;99310.84;5092922;28;20044;-73
2022/12/29 10:14:21;;;;;;;24.10;16.15;;;;;;;0.14;77.97;99304.75;5092871;28;20235;-73
2022/12/29 10:16:56;;;;;;;24.27;15.52;;;;;;;0.15;77.47;99312.53;5092783;28;20049;-73
2022/12/29 10:19:38;;;;;;;24.20;16.80;;;;;;;0.02;77.97;99290.13;5092494;28;20094;-73
2022/12/29 10:22:17;;;;;;;23.30;15.65;;;;;;;0.22;77.77;99318.53;5092497;28;20186;-73
2022/12/29 10:24:47;;;;;;;30.92;18.10;;;;;;;0.22;77.54;99313.31;5091161;28;20071;-73
2022/12/29 10:27:17;;;;;;;27.63;19.23;;;;;;;-0.02;77.58;99275.44;5091415;28;20036;-73
2022/12/29 10:29:49;;;;;;;22.75;14.93;;;;;;;0.22;77.80;99308.09;5092355;28;20359;-74
2022/12/29 10:32:27;;;;;;;27.88;18.00;;;;;;;0.27;78.48;99308.91;5090886;28;20056;-74
2022/12/29 10:34:58;;;;;;;25.02;17.52;;;;;;;0.33;77.70;99305.34;5075818;28;20047;-73
2022/12/29 10:37:33;;;;;;;24.95;16.92;;;;;;;0.36;78.25;99310.50;5091527;28;20120;-73
2022/12/29 10:40:03;;;;;;;25.90;15.88;;;;;;;0.36;78.07;99306.16;5092461;28;20054;-73
2022/12/29 10:42:38;;;;;;;25.15;17.23;;;;;;;0.35;78.47;99301.81;5092174;28;20258;-74
2022/12/29 10:45:06;;;;;;;22.35;15.57;;;;;;;0.31;77.94;99400.94;5092576;28;20044;-73
2022/12/29 10:47:53;;;;;;;23.15;17.77;;;;;;;0.31;78.72;99307.09;5091823;28;20048;-74
2022/12/29 10:50:21;;;;;;;23.52;15.48;;;;;;;0.26;78.20;99308.03;5091287;28;20055;-74
2022/12/29 10:52:49;;;;;;;24.42;17.65;;;;;;;0.32;78.25;99309.69;5089850;28;20044;-73
2022/12/29 10:55:21;;;;;;;25.50;16.48;;;;;;;0.03;78.44;99264.94;5091141;28;20108;-74
2022/12/29 10:57:49;;;;;;;23.25;16.30;;;;;;;0.06;78.36;99262.28;5090987;28;20052;-74
2022/12/29 11:00:20;;;;;;;27.10;15.73;;;;;;;0.34;78.19;99304.44;5091198;28;20196;-74
2022/12/29 11:03:12;;;;;;;25.30;16.73;;;;;;;0.38;79.13;99293.97;5091455;28;20040;-74
2022/12/29 11:05:46;;;;;;;27.42;17.60;;;;;;;0.41;78.23;99285.22;5091205;28;20060;-74
2022/12/29 11:08:17;;;;;;;23.67;17.33;;;;;;;0.43;78.36;99288.66;5091255;28;20037;-75
2022/12/29 11:10:46;;;;;;;26.75;16.70;;;;;;;0.02;78.09;99213.72;5090489;28;20045;-74
2022/12/29 11:13:16;;;;;;;24.75;17.60;;;;;;;0.49;77.96;99284.22;5090690;28;20055;-74
2022/12/29 11:15:44;;;;;;;26.65;16.90;;;;;;;0.51;77.83;99277.25;5092005;28;20040;-74
2022/12/29 11:18:24;;;;;;;31.90;19.70;;;;;;;0.55;78.59;99278.03;5090267;28;20189;-74
2022/12/29 11:20:53;;;;;;;27.55;17.60;;;;;;;0.56;78.44;99282.38;5090869;28;20033;-74
2022/12/29 11:23:31;;;;;;;27.30;18.33;;;;;;;0.11;79.01;99210.97;5091784;28;20044;-74
2022/12/29 11:26:16;;;;;;;26.27;18.10;;;;;;;0.52;79.19;99280.69;5092155;28;20044;-74
2022/12/29 11:28:44;;;;;;;;;;;;;;;0.47;80.51;99290.34;5093136;28;20048;-74
2022/12/29 11:31:16;;;;;;;29.08;19.05;;;;;;;0.48;79.14;99274.69;5090899;28;19924;-74
2022/12/29 11:33:44;;;;;;;26.48;18.35;;;;;;;0.53;79.05;99279.81;5090557;28;20063;-74
2022/12/29 11:36:15;;;;;;;29.90;19.20;;;;;;;0.56;78.84;99280.63;5092023;28;20064;-74
2022/12/29 11:38:46;;;;;;;24.17;17.80;;;;;;;0.04;78.44;99178.94;5091922;28;20036;-74
2022/12/29 11:41:20;;;;;;;28.13;18.02;;;;;;;0.69;78.35;99275.22;5091105;28;20052;-74
2022/12/29 11:43:47;;;;;;;29.98;18.63;;;;;;;0.66;78.53;99270.03;5090796;28;20055;-74
2022/12/29 11:46:20;;;;;;;26.35;18.33;;;;;;;-1.15;78.42;98967.22;5089989;28;20067;-74
2022/12/29 11:48:49;;;;;;;27.10;17.13;;;;;;;0.62;78.55;99266.63;5091060;28;20107;-74
2022/12/29 11:51:24;;;;;;;25.58;17.45;;;;;;;0.64;79.12;99262.25;5090304;28;20041;-74
2022/12/29 11:53:54;;;;;;;25.50;17.48;;;;;;;0.66;78.76;99257.00;5091480;28;20047;-74
2022/12/29 11:56:32;;;;;;;25.60;17.77;;;;;;;0.70;78.67;99256.94;5090776;28;20116;-75
2022/12/29 11:58:59;;;;;;;29.05;18.30;;;;;;;0.75;78.51;99260.31;5090817;28;20045;-74
2022/12/29 12:01:35;;;;;;;24.63;16.55;;;;;;;0.76;78.99;99258.56;5089791;28;20047;-75
2022/12/29 12:04:10;;;;;;;25.73;17.95;;;;;;;0.77;78.76;99242.91;5089012;28;20044;-74
2022/12/29 12:06:45;;;;;;;28.15;18.85;;;;;;;0.00;78.58;99109.50;5089868;28;20036;-74
2022/12/29 12:09:22;;;;;;;27.45;18.17;;;;;;;0.79;78.85;99250.69;5089688;28;20040;-73
2022/12/29 12:11:53;;;;;;;27.25;18.15;;;;;;;0.76;78.71;99250.75;5088866;28;20158;-74
2022/12/29 12:14:24;;;;;;;27.13;18.35;;;;;;;0.81;78.55;99252.38;5090294;28;20044;-74
2022/12/29 12:16:56;;;;;;;28.50;18.40;;;;;;;0.81;78.50;99255.00;5090170;28;20044;-74
2022/12/29 12:19:34;;;;;;;29.58;19.00;;;;;;;-0.83;78.88;98961.56;5090225;28;20319;-73
2022/12/29 12:22:09;;;;;;;28.80;21.27;;;;;;;0.85;78.48;99241.00;5091074;28;20113;-74
2022/12/29 12:24:42;;;;;;;29.15;18.55;;;;;;;0.86;78.43;99240.13;5090420;28;20070;-73